Time,TemperatureF,DewpointF,PressureIn,WindDirection,WindDirectionDegrees,WindSpeedMPH,WindSpeedGustMPH,Humidity,HourlyPrecipIn,Conditions,Clouds,dailyrainin,SolarRadiationWatts/m^2,SoftwareType,DateUTC
2013-05-27 00:00:00,60.5,58.5,30.02,ESE,102,11.0,11.0,93,0.00,,,0.00,0,Wunderground v.1.15,2013-05-27 05:00:00,
2013-05-27 00:10:00,60.5,58.5,30.01,ESE,111,11.0,11.0,93,0.00,,,0.00,0,Wunderground v.1.15,2013-05-27 05:10:00,
2013-05-27 00:20:00,60.3,58.3,30.02,East,95,9.0,9.0,93,0.00,,,0.00,0,Wunderground v.1.15,2013-05-27 05:20:00,
2013-05-27 00:25:00,60.3,58.3,30.02,ENE,63,6.0,9.0,93,0.00,,,0.00,0,Wunderground v.1.15,2013-05-27 05:25:00,
2013-05-27 00:30:00,60.3,58.3,30.01,ENE,67,5.0,9.0,93,0.00,,,0.00,0,Wunderground v.1.15,2013-05-27 05:30:00,
2013-05-27 00:35:00,60.1,58.1,30.01,ENE,71,6.0,9.0,93,0.00,,,0.00,0,Wunderground v.1.15,2013-05-27 05:35:00,
2013-05-27 00:40:00,60.0,58.0,30.00,East,82,7.0,9.0,93,0.00,,,0.00,0,Wunderground v.1.15,2013-05-27 05:40:00,
2013-05-27 00:45:00,59.9,57.9,30.00,East,88,9.0,13.0,93,0.00,,,0.00,0,Wunderground v.1.15,2013-05-27 05:45:00,
2013-05-27 00:50:00,59.8,57.8,30.00,East,79,11.0,12.0,93,0.00,,,0.00,0,Wunderground v.1.15,2013-05-27 05:50:00,
2013-05-27 00:55:00,59.9,57.9,29.99,ESE,104,14.0,15.0,93,0.00,,,0.00,0,Wunderground v.1.15,2013-05-27 05:55:00,
2013-05-27 01:00:00,60.0,58.0,29.99,ESE,103,15.0,17.0,93,0.00,,,0.00,0,Wunderground v.1.15,2013-05-27 06:00:00,
2013-05-27 01:10:00,60.2,58.2,30.00,ENE,61,13.0,13.0,93,0.00,,,0.00,0,Wunderground v.1.15,2013-05-27 06:10:00,
2013-05-27 01:15:00,60.4,58.4,30.01,NNE,22,7.0,13.0,93,0.00,,,0.00,0,Wunderground v.1.15,2013-05-27 06:15:00,
2013-05-27 01:25:00,60.3,58.3,29.99,East,82,10.0,11.0,93,0.00,,,0.00,0,Wunderground v.1.15,2013-05-27 06:25:00,
2013-05-27 01:30:00,60.2,58.2,30.00,East,86,10.0,10.0,93,0.00,,,0.00,0,Wunderground v.1.15,2013-05-27 06:30:00,
2013-05-27 01:35:00,60.2,58.5,30.00,ENE,69,6.0,10.0,94,0.00,,,0.00,0,Wunderground v.1.15,2013-05-27 06:35:00,
2013-05-27 01:40:00,60.1,58.4,30.00,East,80,5.0,5.0,94,0.00,,,0.00,0,Wunderground v.1.15,2013-05-27 06:40:00,
2013-05-27 01:45:00,60.1,58.4,30.00,East,80,4.0,5.0,94,0.00,,,0.00,0,Wunderground v.1.15,2013-05-27 06:45:00,
2013-05-27 01:50:00,60.1,58.4,30.00,East,81,3.0,7.0,94,2.34,,,0.08,0,Wunderground v.1.15,2013-05-27 06:50:00,
2013-05-27 02:00:00,60.2,58.8,30.00,ESE,103,4.0,5.0,95,1.66,,,0.32,0,Wunderground v.1.15,2013-05-27 07:00:00,
2013-05-27 02:05:00,60.1,58.7,29.99,ESE,111,5.0,13.0,95,2.00,,,0.51,0,Wunderground v.1.15,2013-05-27 07:05:00,
2013-05-27 02:10:00,60.1,58.7,29.99,ENE,70,7.0,7.0,95,0.37,,,0.58,0,Wunderground v.1.15,2013-05-27 07:10:00,
2013-05-27 02:15:00,60.1,59.0,29.99,ESE,107,7.0,8.0,96,0.18,,,0.59,0,Wunderground v.1.15,2013-05-27 07:15:00,
2013-05-27 02:20:00,60.2,59.1,29.99,SE,144,8.0,10.0,96,0.12,,,0.60,0,Wunderground v.1.15,2013-05-27 07:20:00,
2013-05-27 02:30:00,60.1,59.0,29.97,ESE,113,12.0,12.0,96,0.05,,,0.60,0,Wunderground v.1.15,2013-05-27 07:30:00,
2013-05-27 02:35:00,60.2,59.1,29.96,SE,125,12.0,12.0,96,0.00,,,0.60,0,Wunderground v.1.15,2013-05-27 07:35:00,
2013-05-27 02:40:00,60.3,59.2,29.97,SE,128,11.0,12.0,96,0.00,,,0.60,0,Wunderground v.1.15,2013-05-27 07:40:00,
2013-05-27 02:45:00,60.4,59.3,29.97,SE,131,11.0,12.0,96,0.00,,,0.61,0,Wunderground v.1.15,2013-05-27 07:45:00,
2013-05-27 02:50:00,60.5,59.4,29.98,SE,126,11.0,11.0,96,0.00,,,0.61,0,Wunderground v.1.15,2013-05-27 07:50:00,
2013-05-27 02:55:00,60.6,59.5,29.97,SE,140,11.0,15.0,96,0.00,,,0.61,0,Wunderground v.1.15,2013-05-27 07:55:00,
2013-05-27 03:05:00,61.1,60.0,29.97,ESE,108,11.0,12.0,96,0.00,,,0.61,0,Wunderground v.1.15,2013-05-27 08:05:00,
2013-05-27 03:10:00,61.2,60.1,29.97,ESE,109,9.0,9.0,96,0.00,,,0.61,0,Wunderground v.1.15,2013-05-27 08:10:00,
2013-05-27 03:15:00,61.4,60.2,29.97,SE,126,9.0,12.0,96,0.00,,,0.62,0,Wunderground v.1.15,2013-05-27 08:15:00,
2013-05-27 03:20:00,61.4,60.2,29.96,ESE,117,11.0,16.0,96,0.12,,,0.63,0,Wunderground v.1.15,2013-05-27 08:20:00,
2013-05-27 03:25:00,61.4,60.2,29.96,ESE,116,13.0,16.0,96,0.09,,,0.63,0,Wunderground v.1.15,2013-05-27 08:25:00,
2013-05-27 03:35:00,61.5,60.3,29.95,ESE,117,12.0,13.0,96,0.06,,,0.64,0,Wunderground v.1.15,2013-05-27 08:35:00,
2013-05-27 03:40:00,61.5,60.3,29.94,ESE,111,11.0,11.0,96,0.06,,,0.65,0,Wunderground v.1.15,2013-05-27 08:40:00,
2013-05-27 03:45:00,61.5,60.3,29.94,SE,126,11.0,12.0,96,0.06,,,0.65,0,Wunderground v.1.15,2013-05-27 08:45:00,
2013-05-27 03:50:00,61.6,60.4,29.93,ESE,115,11.0,11.0,96,0.06,,,0.65,0,Wunderground v.1.15,2013-05-27 08:50:00,
2013-05-27 03:55:00,61.6,60.4,29.92,ESE,119,12.0,12.0,96,0.04,,,0.65,0,Wunderground v.1.15,2013-05-27 08:55:00,
2013-05-27 04:00:00,61.6,60.4,29.92,ESE,121,10.0,10.0,96,0.04,,,0.66,0,Wunderground v.1.15,2013-05-27 09:00:00,
2013-05-27 04:05:00,61.7,60.5,29.92,ESE,107,10.0,14.0,96,0.10,,,0.67,0,Wunderground v.1.15,2013-05-27 09:05:00,
2013-05-27 04:10:00,61.9,61.0,29.91,ESE,107,11.0,11.0,97,0.23,,,0.69,0,Wunderground v.1.15,2013-05-27 09:10:00,
2013-05-27 04:15:00,62.0,61.1,29.91,East,101,13.0,15.0,97,0.32,,,0.71,0,Wunderground v.1.15,2013-05-27 09:15:00,
2013-05-27 04:20:00,62.1,61.2,29.91,ESE,105,14.0,14.0,97,0.22,,,0.73,0,Wunderground v.1.15,2013-05-27 09:20:00,
2013-05-27 04:25:00,62.2,61.3,29.89,ESE,109,13.0,14.0,97,0.18,,,0.75,0,Wunderground v.1.15,2013-05-27 09:25:00,
2013-05-27 04:30:00,62.3,61.4,29.88,East,94,13.0,13.0,97,0.24,,,0.77,0,Wunderground v.1.15,2013-05-27 09:30:00,
2013-05-27 04:40:00,62.4,61.5,29.89,ESE,111,11.0,11.0,97,0.08,,,0.78,0,Wunderground v.1.15,2013-05-27 09:40:00,
2013-05-27 04:45:00,62.5,61.6,29.89,ESE,111,11.0,11.0,97,0.05,,,0.78,0,Wunderground v.1.15,2013-05-27 09:45:00,
2013-05-27 04:50:00,62.6,61.7,29.90,SE,128,11.0,15.0,97,0.04,,,0.79,0,Wunderground v.1.15,2013-05-27 09:50:00,
2013-05-27 04:55:00,62.7,61.5,29.89,ESE,117,13.0,16.0,96,0.04,,,0.79,0,Wunderground v.1.15,2013-05-27 09:55:00,
2013-05-27 05:00:00,62.8,61.6,29.89,SE,124,13.0,13.0,96,0.04,,,0.79,0,Wunderground v.1.15,2013-05-27 10:00:00,
2013-05-27 05:10:00,62.9,61.7,29.89,SE,124,13.0,13.0,96,0.00,,,0.80,0,Wunderground v.1.15,2013-05-27 10:10:00,
2013-05-27 05:15:00,62.9,61.7,29.89,ESE,120,11.0,13.0,96,0.00,,,0.80,0,Wunderground v.1.15,2013-05-27 10:15:00,
2013-05-27 05:20:00,62.9,61.7,29.90,ESE,123,8.0,8.0,96,0.05,,,0.81,0,Wunderground v.1.15,2013-05-27 10:20:00,
2013-05-27 05:25:00,63.0,61.8,29.90,ESE,122,6.0,8.0,96,0.05,,,0.81,0,Wunderground v.1.15,2013-05-27 10:25:00,
2013-05-27 05:34:00,63.0,61.8,29.90,SE,124,5.0,5.0,96,0.08,,,0.83,0,Wunderground v.1.15,2013-05-27 10:34:00,
2013-05-27 05:39:00,62.9,61.7,29.90,SE,125,5.0,7.0,96,0.08,,,0.83,0,Wunderground v.1.15,2013-05-27 10:39:00,
2013-05-27 05:45:00,63.1,61.9,29.91,ESE,121,5.0,7.0,96,0.07,,,0.84,0,Wunderground v.1.15,2013-05-27 10:45:00,
2013-05-27 05:50:00,63.1,62.2,29.91,ESE,121,5.0,5.0,97,0.07,,,0.84,0,Wunderground v.1.15,2013-05-27 10:50:00,
2013-05-27 05:55:00,63.3,62.4,29.90,SE,128,5.0,13.0,97,0.06,,,0.85,0,Wunderground v.1.15,2013-05-27 10:55:00,
2013-05-27 06:00:00,63.6,62.7,29.90,ESE,119,9.0,12.0,97,0.06,,,0.85,5,Wunderground v.1.15,2013-05-27 11:00:00,
2013-05-27 06:10:00,63.8,62.9,29.90,ESE,117,11.0,11.0,97,0.09,,,0.87,11,Wunderground v.1.15,2013-05-27 11:10:00,
2013-05-27 06:19:00,63.8,62.9,29.91,ESE,122,8.0,8.0,97,0.07,,,0.88,14,Wunderground v.1.15,2013-05-27 11:19:00,
2013-05-27 06:24:00,63.7,62.8,29.91,ESE,122,7.0,8.0,97,0.07,,,0.88,21,Wunderground v.1.15,2013-05-27 11:24:00,
2013-05-27 06:30:00,63.7,62.8,29.91,ESE,122,4.0,4.0,97,0.04,,,0.88,26,Wunderground v.1.15,2013-05-27 11:30:00,
2013-05-27 06:35:00,63.7,62.8,29.91,ESE,122,1.0,4.0,97,0.00,,,0.88,26,Wunderground v.1.15,2013-05-27 11:35:00,
2013-05-27 06:40:00,63.7,62.8,29.91,ESE,122,0.0,0.0,97,0.00,,,0.88,23,Wunderground v.1.15,2013-05-27 11:40:00,
2013-05-27 06:45:00,63.7,62.8,29.91,ESE,122,0.0,0.0,97,0.00,,,0.88,23,Wunderground v.1.15,2013-05-27 11:45:00,
2013-05-27 06:50:00,63.7,62.8,29.92,ESE,122,0.0,0.0,97,0.00,,,0.88,26,Wunderground v.1.15,2013-05-27 11:50:00,
2013-05-27 06:55:00,63.7,62.8,29.92,ESE,122,0.0,0.0,97,0.00,,,0.88,30,Wunderground v.1.15,2013-05-27 11:55:00,
2013-05-27 07:00:00,63.6,62.7,29.93,ESE,122,0.0,0.0,97,0.00,,,0.88,37,Wunderground v.1.15,2013-05-27 12:00:00,
2013-05-27 07:10:00,63.0,61.8,29.93,ENE,78,1.0,1.0,96,0.00,,,0.88,40,Wunderground v.1.15,2013-05-27 12:10:00,
2013-05-27 07:15:00,62.8,61.6,29.93,ENE,78,1.0,1.0,96,0.00,,,0.89,33,Wunderground v.1.15,2013-05-27 12:15:00,
2013-05-27 07:25:00,62.7,61.8,29.92,ENE,78,0.0,3.0,97,0.00,,,0.89,33,Wunderground v.1.15,2013-05-27 12:25:00,
2013-05-27 07:30:00,62.6,61.7,29.93,ENE,78,1.0,1.0,97,0.00,,,0.89,25,Wunderground v.1.15,2013-05-27 12:30:00,
2013-05-27 07:35:00,62.5,61.6,29.94,ENE,74,1.0,2.0,97,0.00,,,0.89,26,Wunderground v.1.15,2013-05-27 12:35:00,
2013-05-27 07:40:00,62.4,61.2,29.94,ENE,69,1.0,1.0,96,0.00,,,0.89,47,Wunderground v.1.15,2013-05-27 12:40:00,
2013-05-27 07:45:00,62.3,61.4,29.95,ENE,66,1.0,1.0,97,0.00,,,0.89,53,Wunderground v.1.15,2013-05-27 12:45:00,
2013-05-27 07:50:00,62.3,61.4,29.95,ENE,66,1.0,1.0,97,0.00,,,0.89,63,Wunderground v.1.15,2013-05-27 12:50:00,
2013-05-27 07:55:00,62.3,61.4,29.95,ENE,66,0.0,2.0,97,0.00,,,0.89,86,Wunderground v.1.15,2013-05-27 12:55:00,
2013-05-27 08:00:00,62.3,61.4,29.95,ENE,66,0.0,0.0,97,0.00,,,0.89,100,Wunderground v.1.15,2013-05-27 13:00:00,
2013-05-27 08:10:00,62.6,61.7,29.95,ENE,66,0.0,0.0,97,0.00,,,0.89,185,Wunderground v.1.15,2013-05-27 13:10:00,
2013-05-27 08:15:00,62.7,61.8,29.96,ENE,66,0.0,0.0,97,0.00,,,0.89,81,Wunderground v.1.15,2013-05-27 13:15:00,
2013-05-27 08:20:00,62.8,61.9,29.96,ENE,66,0.0,0.0,97,0.00,,,0.89,116,Wunderground v.1.15,2013-05-27 13:20:00,
2013-05-27 08:30:00,63.1,62.2,29.95,ENE,66,0.0,0.0,97,0.00,,,0.89,107,Wunderground v.1.15,2013-05-27 13:30:00,
2013-05-27 08:35:00,63.2,62.3,29.95,ENE,66,0.0,0.0,97,0.00,,,0.89,158,Wunderground v.1.15,2013-05-27 13:35:00,
2013-05-27 08:40:00,63.4,62.5,29.95,ENE,66,0.0,1.0,97,0.00,,,0.89,104,Wunderground v.1.15,2013-05-27 13:40:00,
2013-05-27 08:45:00,63.6,62.7,29.95,ENE,66,0.0,1.0,97,0.00,,,0.89,148,Wunderground v.1.15,2013-05-27 13:45:00,
2013-05-27 08:50:00,63.4,62.5,29.95,NW,313,4.0,11.0,97,0.00,,,0.89,74,Wunderground v.1.15,2013-05-27 13:50:00,
2013-05-27 08:55:00,63.1,62.2,29.94,NW,313,6.0,11.0,97,0.00,,,0.89,102,Wunderground v.1.15,2013-05-27 13:55:00,
2013-05-27 09:00:00,63.0,62.1,29.94,NW,313,3.0,3.0,97,0.00,,,0.89,90,Wunderground v.1.15,2013-05-27 14:00:00,
2013-05-27 09:10:00,63.0,62.1,29.94,NW,313,0.0,0.0,97,0.00,,,0.89,105,Wunderground v.1.15,2013-05-27 14:10:00,
2013-05-27 09:15:00,63.2,62.3,29.94,NW,313,0.0,0.0,97,0.00,,,0.89,142,Wunderground v.1.15,2013-05-27 14:15:00,
2013-05-27 09:20:00,63.3,62.4,29.93,NW,313,1.0,1.0,97,0.00,,,0.89,134,Wunderground v.1.15,2013-05-27 14:20:00,
2013-05-27 09:25:00,63.4,62.5,29.93,NW,313,1.0,2.0,97,0.00,,,0.89,160,Wunderground v.1.15,2013-05-27 14:25:00,
2013-05-27 09:35:00,63.6,62.7,29.92,NW,313,0.0,0.0,97,0.00,,,0.89,163,Wunderground v.1.15,2013-05-27 14:35:00,
2013-05-27 09:40:00,63.7,62.8,29.92,NW,313,0.0,0.0,97,0.00,,,0.89,171,Wunderground v.1.15,2013-05-27 14:40:00,
2013-05-27 09:45:00,63.9,63.0,29.92,NW,313,0.0,2.0,97,0.00,,,0.89,241,Wunderground v.1.15,2013-05-27 14:45:00,
2013-05-27 09:50:00,63.9,63.0,29.92,NW,313,1.0,3.0,97,0.00,,,0.89,241,Wunderground v.1.15,2013-05-27 14:50:00,
2013-05-27 09:55:00,64.0,63.1,29.92,NW,313,1.0,3.0,97,0.00,,,0.89,357,Wunderground v.1.15,2013-05-27 14:55:00,
2013-05-27 10:00:00,64.3,63.4,29.92,NW,313,1.0,1.0,97,0.00,,,0.89,343,Wunderground v.1.15,2013-05-27 15:00:00,
2013-05-27 10:05:00,64.6,63.7,29.91,NW,313,0.0,1.0,97,0.00,,,0.89,392,Wunderground v.1.15,2013-05-27 15:05:00,
2013-05-27 10:10:00,64.8,63.9,29.91,NW,313,0.0,0.0,97,0.00,,,0.89,285,Wunderground v.1.15,2013-05-27 15:10:00,
2013-05-27 10:15:00,65.0,64.1,29.91,NW,313,0.0,0.0,97,0.00,,,0.89,283,Wunderground v.1.15,2013-05-27 15:15:00,
2013-05-27 10:20:00,65.1,63.9,29.91,NW,313,0.0,0.0,96,0.00,,,0.89,352,Wunderground v.1.15,2013-05-27 15:20:00,
2013-05-27 10:25:00,65.3,64.1,29.91,NW,313,0.0,0.0,96,0.00,,,0.89,385,Wunderground v.1.15,2013-05-27 15:25:00,
2013-05-27 10:30:00,65.5,64.3,29.91,NW,313,0.0,1.0,96,0.00,,,0.89,397,Wunderground v.1.15,2013-05-27 15:30:00,
2013-05-27 10:40:00,65.9,64.4,29.90,NW,313,2.0,2.0,95,0.00,,,0.89,568,Wunderground v.1.15,2013-05-27 15:40:00,
2013-05-27 10:45:00,66.1,64.6,29.90,NNW,332,3.0,3.0,95,0.00,,,0.89,496,Wunderground v.1.15,2013-05-27 15:45:00,
2013-05-27 10:50:00,66.3,64.8,29.89,NNW,344,3.0,3.0,95,0.00,,,0.89,563,Wunderground v.1.15,2013-05-27 15:50:00,
2013-05-27 10:55:00,66.6,65.1,29.88,East,83,4.0,4.0,95,0.00,,,0.89,454,Wunderground v.1.15,2013-05-27 15:55:00,
2013-05-27 11:00:00,66.8,65.3,29.88,East,90,5.0,5.0,95,0.00,,,0.89,441,Wunderground v.1.15,2013-05-27 16:00:00,
2013-05-27 11:05:00,66.7,64.9,29.87,East,79,5.0,5.0,94,0.00,,,0.89,504,Wunderground v.1.15,2013-05-27 16:05:00,
2013-05-27 11:15:00,67.0,65.2,29.88,ESE,111,6.0,8.0,94,0.00,,,0.89,422,Wunderground v.1.15,2013-05-27 16:15:00,
2013-05-27 11:20:00,67.2,65.4,29.89,ESE,109,5.0,7.0,94,0.00,,,0.89,418,Wunderground v.1.15,2013-05-27 16:20:00,
2013-05-27 11:25:00,67.6,65.8,29.89,ESE,109,5.0,7.0,94,0.00,,,0.89,408,Wunderground v.1.15,2013-05-27 16:25:00,
2013-05-27 11:30:00,67.8,65.7,29.89,SE,128,5.0,5.0,93,0.00,,,0.89,454,Wunderground v.1.15,2013-05-27 16:30:00,
2013-05-27 11:35:00,68.0,66.2,29.90,ESE,111,6.0,6.0,94,0.00,,,0.89,557,Wunderground v.1.15,2013-05-27 16:35:00,
2013-05-27 11:45:00,68.7,66.6,29.89,SE,146,6.0,7.0,93,0.00,,,0.89,504,Wunderground v.1.15,2013-05-27 16:45:00,
2013-05-27 11:50:00,68.8,66.4,29.89,SE,146,6.0,6.0,92,0.00,,,0.89,439,Wunderground v.1.15,2013-05-27 16:50:00,
2013-05-27 11:55:00,68.9,66.2,29.90,ESE,118,6.0,6.0,91,0.00,,,0.89,364,Wunderground v.1.15,2013-05-27 16:55:00,
2013-05-27 12:00:00,68.9,66.2,29.90,ESE,123,6.0,6.0,91,0.00,,,0.89,287,Wunderground v.1.15,2013-05-27 17:00:00,
2013-05-27 12:05:00,68.9,66.2,29.90,ESE,121,6.0,7.0,91,0.00,,,0.89,216,Wunderground v.1.15,2013-05-27 17:05:00,
2013-05-27 12:10:00,68.8,66.4,29.90,ESE,119,6.0,6.0,92,0.00,,,0.89,190,Wunderground v.1.15,2013-05-27 17:10:00,
2013-05-27 12:20:00,68.6,65.9,29.91,ESE,119,4.0,4.0,91,0.00,,,0.89,176,Wunderground v.1.15,2013-05-27 17:20:00,
2013-05-27 12:25:00,68.7,66.3,29.91,ESE,119,4.0,4.0,92,0.00,,,0.89,160,Wunderground v.1.15,2013-05-27 17:25:00,
2013-05-27 12:30:00,68.7,66.3,29.91,ESE,119,3.0,4.0,92,0.00,,,0.89,146,Wunderground v.1.15,2013-05-27 17:30:00,
2013-05-27 12:35:00,68.7,66.3,29.91,ESE,119,3.0,4.0,92,0.00,,,0.89,130,Wunderground v.1.15,2013-05-27 17:35:00,
2013-05-27 12:40:00,68.7,66.0,29.91,ESE,119,3.0,3.0,91,0.00,,,0.89,81,Wunderground v.1.15,2013-05-27 17:40:00,
2013-05-27 12:50:00,68.6,65.9,29.92,ESE,120,3.0,3.0,91,0.00,,,0.89,49,Wunderground v.1.15,2013-05-27 17:50:00,
2013-05-27 12:55:00,68.6,66.2,29.93,SE,128,4.0,4.0,92,0.00,,,0.89,30,Wunderground v.1.15,2013-05-27 17:55:00,
2013-05-27 13:00:00,68.5,66.1,29.92,SE,138,5.0,5.0,92,0.00,,,0.89,21,Wunderground v.1.15,2013-05-27 18:00:00,
2013-05-27 13:05:00,68.4,66.0,29.93,SW,226,6.0,9.0,92,0.00,,,0.89,14,Wunderground v.1.15,2013-05-27 18:05:00,
2013-05-27 13:10:00,68.2,66.1,29.93,SW,221,8.0,8.0,93,0.35,,,0.91,14,Wunderground v.1.15,2013-05-27 18:10:00,
2013-05-27 13:15:00,68.0,65.9,29.93,SW,221,8.0,8.0,93,0.18,,,0.93,23,Wunderground v.1.15,2013-05-27 18:15:00,
2013-05-27 13:25:00,67.6,65.8,29.93,SW,215,7.0,9.0,94,0.19,,,0.97,9,Wunderground v.1.15,2013-05-27 18:25:00,
2013-05-27 13:30:00,67.5,65.7,29.92,SW,217,8.0,10.0,94,0.15,,,0.99,21,Wunderground v.1.15,2013-05-27 18:30:00,
2013-05-27 13:35:00,67.4,65.9,29.92,SW,229,8.0,10.0,95,0.15,,,1.00,23,Wunderground v.1.15,2013-05-27 18:35:00,
2013-05-27 13:40:00,67.1,65.6,29.91,SW,230,6.0,6.0,95,0.55,,,1.03,33,Wunderground v.1.15,2013-05-27 18:40:00,
2013-05-27 13:45:00,66.9,65.4,29.90,SW,230,3.0,6.0,95,0.30,,,1.05,53,Wunderground v.1.15,2013-05-27 18:45:00,
2013-05-27 13:55:00,66.6,64.8,29.88,SW,230,0.0,3.0,94,0.16,,,1.08,83,Wunderground v.1.15,2013-05-27 18:55:00,
2013-05-27 14:00:00,66.5,65.0,29.88,SW,230,2.0,4.0,95,0.07,,,1.08,88,Wunderground v.1.15,2013-05-27 19:00:00,
2013-05-27 14:05:00,66.4,64.9,29.86,SW,218,4.0,5.0,95,0.04,,,1.08,114,Wunderground v.1.15,2013-05-27 19:05:00,
2013-05-27 14:10:00,66.5,65.0,29.85,ESE,121,7.0,13.0,95,0.04,,,1.09,100,Wunderground v.1.15,2013-05-27 19:10:00,
2013-05-27 14:15:00,66.5,65.0,29.82,SE,129,12.0,19.0,95,0.04,,,1.09,90,Wunderground v.1.15,2013-05-27 19:15:00,
2013-05-27 14:20:00,66.4,65.2,29.75,SE,126,18.0,25.0,96,0.04,,,1.09,81,Wunderground v.1.15,2013-05-27 19:20:00,
2013-05-27 14:30:00,65.9,64.7,29.74,SE,128,23.0,25.0,96,0.04,,,1.10,83,Wunderground v.1.15,2013-05-27 19:30:00,
2013-05-27 14:35:00,66.1,64.9,29.77,SE,125,20.0,25.0,96,0.04,,,1.10,81,Wunderground v.1.15,2013-05-27 19:35:00,
2013-05-27 14:40:00,66.1,64.9,29.80,ESE,122,14.0,14.0,96,0.04,,,1.10,90,Wunderground v.1.15,2013-05-27 19:40:00,
2013-05-27 14:45:00,66.2,65.0,29.80,ESE,107,9.0,14.0,96,0.00,,,1.10,100,Wunderground v.1.15,2013-05-27 19:45:00,
2013-05-27 14:50:00,66.3,65.1,29.79,ESE,107,8.0,9.0,96,0.00,,,1.10,125,Wunderground v.1.15,2013-05-27 19:50:00,
2013-05-27 15:00:00,66.7,64.9,29.78,East,96,9.0,9.0,94,0.00,,,1.10,172,Wunderground v.1.15,2013-05-27 20:00:00,
2013-05-27 15:05:00,67.0,64.9,29.79,East,92,8.0,9.0,93,0.00,,,1.10,186,Wunderground v.1.15,2013-05-27 20:05:00,
2013-05-27 15:10:00,67.2,65.1,29.79,East,92,6.0,6.0,93,0.00,,,1.10,227,Wunderground v.1.15,2013-05-27 20:10:00,
2013-05-27 15:15:00,67.4,65.3,29.78,East,95,6.0,6.0,93,0.00,,,1.10,267,Wunderground v.1.15,2013-05-27 20:15:00,
2013-05-27 15:20:00,67.6,65.8,29.79,East,98,7.0,7.0,94,0.00,,,1.10,309,Wunderground v.1.15,2013-05-27 20:20:00,
2013-05-27 15:25:00,67.7,65.6,29.76,ESE,109,8.0,11.0,93,0.00,,,1.10,330,Wunderground v.1.15,2013-05-27 20:25:00,
2013-05-27 15:35:00,68.0,65.9,29.76,ESE,115,12.0,15.0,93,0.00,,,1.10,394,Wunderground v.1.15,2013-05-27 20:35:00,
2013-05-27 15:40:00,68.3,66.2,29.76,ESE,107,12.0,12.0,93,0.00,,,1.10,383,Wunderground v.1.15,2013-05-27 20:40:00,
2013-05-27 15:45:00,68.3,65.9,29.76,ESE,119,11.0,12.0,92,0.00,,,1.10,359,Wunderground v.1.15,2013-05-27 20:45:00,
2013-05-27 15:50:00,68.5,66.1,29.75,ESE,105,10.0,13.0,92,0.00,,,1.10,357,Wunderground v.1.15,2013-05-27 20:50:00,
2013-05-27 15:55:00,68.8,66.4,29.75,East,97,10.0,13.0,92,0.00,,,1.10,353,Wunderground v.1.15,2013-05-27 20:55:00,
2013-05-27 16:05:00,68.9,66.2,29.75,ESE,105,10.0,12.0,91,0.00,,,1.10,334,Wunderground v.1.15,2013-05-27 21:05:00,
2013-05-27 16:10:00,68.9,66.2,29.76,ESE,113,10.0,10.0,91,0.00,,,1.10,338,Wunderground v.1.15,2013-05-27 21:10:00,
2013-05-27 16:15:00,69.0,65.9,29.76,ESE,112,10.0,11.0,90,0.00,,,1.10,299,Wunderground v.1.15,2013-05-27 21:15:00,
2013-05-27 16:20:00,69.0,65.9,29.75,East,93,9.0,9.0,90,0.00,,,1.10,279,Wunderground v.1.15,2013-05-27 21:20:00,
2013-05-27 16:25:00,68.9,65.8,29.75,East,97,9.0,10.0,90,0.00,,,1.10,248,Wunderground v.1.15,2013-05-27 21:25:00,
2013-05-27 16:30:00,68.9,65.8,29.74,East,97,9.0,9.0,90,0.00,,,1.10,232,Wunderground v.1.15,2013-05-27 21:30:00,
2013-05-27 16:40:00,68.9,66.2,29.74,East,95,8.0,8.0,91,0.00,,,1.10,230,Wunderground v.1.15,2013-05-27 21:40:00,
2013-05-27 16:45:00,68.9,66.5,29.74,East,93,7.0,8.0,92,0.00,,,1.10,223,Wunderground v.1.15,2013-05-27 21:45:00,
2013-05-27 16:50:00,69.0,66.6,29.75,East,92,6.0,6.0,92,0.00,,,1.10,255,Wunderground v.1.15,2013-05-27 21:50:00,
2013-05-27 16:55:00,68.9,66.2,29.75,East,94,5.0,6.0,91,0.00,,,1.10,294,Wunderground v.1.15,2013-05-27 21:55:00,
2013-05-27 17:00:00,69.0,66.3,29.75,East,94,6.0,6.0,91,0.00,,,1.10,318,Wunderground v.1.15,2013-05-27 22:00:00,
2013-05-27 17:10:00,69.2,66.5,29.75,East,79,5.0,5.0,91,0.00,,,1.10,313,Wunderground v.1.15,2013-05-27 22:10:00,
2013-05-27 17:15:00,69.1,66.4,29.76,East,80,5.0,5.0,91,0.00,,,1.10,304,Wunderground v.1.15,2013-05-27 22:15:00,
2013-05-27 17:20:00,69.1,66.0,29.76,East,87,5.0,7.0,90,0.00,,,1.10,269,Wunderground v.1.15,2013-05-27 22:20:00,
2013-05-27 17:25:00,69.1,66.0,29.77,East,88,5.0,7.0,90,0.00,,,1.10,237,Wunderground v.1.15,2013-05-27 22:25:00,
2013-05-27 17:30:00,69.1,66.0,29.77,East,90,6.0,7.0,90,0.00,,,1.10,216,Wunderground v.1.15,2013-05-27 22:30:00,
2013-05-27 17:35:00,69.0,65.6,29.77,ESE,108,7.0,10.0,89,0.00,,,1.10,202,Wunderground v.1.15,2013-05-27 22:35:00,
2013-05-27 17:45:00,69.0,65.9,29.77,ESE,109,6.0,7.0,90,0.00,,,1.10,209,Wunderground v.1.15,2013-05-27 22:45:00,
2013-05-27 17:50:00,69.1,66.0,29.77,ESE,110,6.0,6.0,90,0.00,,,1.10,237,Wunderground v.1.15,2013-05-27 22:50:00,
2013-05-27 17:55:00,69.2,65.8,29.77,ESE,114,6.0,9.0,89,0.00,,,1.10,281,Wunderground v.1.15,2013-05-27 22:55:00,
2013-05-27 18:00:00,69.4,66.0,29.77,ESE,117,6.0,9.0,89,0.00,,,1.10,309,Wunderground v.1.15,2013-05-27 23:00:00,
2013-05-27 18:10:00,69.6,65.9,29.77,ESE,116,7.0,7.0,88,0.00,,,1.10,332,Wunderground v.1.15,2013-05-27 23:10:00,
2013-05-27 18:15:00,69.8,66.1,29.78,ESE,105,7.0,7.0,88,0.00,,,1.10,334,Wunderground v.1.15,2013-05-27 23:15:00,
2013-05-27 18:20:00,70.0,66.3,29.78,ESE,109,6.0,6.0,88,0.00,,,1.10,209,Wunderground v.1.15,2013-05-27 23:20:00,
2013-05-27 18:25:00,70.0,66.3,29.78,ESE,108,6.0,7.0,88,0.00,,,1.10,146,Wunderground v.1.15,2013-05-27 23:25:00,
2013-05-27 18:30:00,69.9,65.9,29.78,ESE,111,6.0,6.0,87,0.00,,,1.10,111,Wunderground v.1.15,2013-05-27 23:30:00,
2013-05-27 18:35:00,69.7,65.7,29.78,ESE,113,7.0,9.0,87,0.00,,,1.10,118,Wunderground v.1.15,2013-05-27 23:35:00,
2013-05-27 18:40:00,69.5,65.8,29.78,ESE,114,7.0,7.0,88,0.00,,,1.10,118,Wunderground v.1.15,2013-05-27 23:40:00,
2013-05-27 18:50:00,69.3,65.9,29.78,ESE,112,6.0,7.0,89,0.00,,,1.10,93,Wunderground v.1.15,2013-05-27 23:50:00,
2013-05-27 18:55:00,69.2,66.1,29.78,ESE,115,6.0,7.0,90,0.00,,,1.10,188,Wunderground v.1.15,2013-05-27 23:55:00,
2013-05-27 19:00:00,69.2,66.1,29.78,ESE,116,6.0,7.0,90,0.00,,,1.10,149,Wunderground v.1.15,2013-05-28 00:00:00,
2013-05-27 19:10:00,69.2,65.8,29.78,ESE,113,5.0,5.0,89,0.00,,,1.10,130,Wunderground v.1.15,2013-05-28 00:10:00,
2013-05-27 19:15:00,69.3,65.9,29.78,ESE,113,5.0,5.0,89,0.00,,,1.10,123,Wunderground v.1.15,2013-05-28 00:15:00,
2013-05-27 19:20:00,69.2,66.1,29.79,ESE,104,5.0,5.0,90,0.00,,,1.10,127,Wunderground v.1.15,2013-05-28 00:20:00,
2013-05-27 19:25:00,69.2,66.5,29.79,ESE,104,4.0,5.0,91,0.00,,,1.10,113,Wunderground v.1.15,2013-05-28 00:25:00,
2013-05-27 19:30:00,69.2,66.5,29.79,ESE,104,3.0,5.0,91,0.00,,,1.10,90,Wunderground v.1.15,2013-05-28 00:30:00,
2013-05-27 19:35:00,69.0,66.3,29.79,ESE,104,4.0,5.0,91,0.00,,,1.10,76,Wunderground v.1.15,2013-05-28 00:35:00,
2013-05-27 19:40:00,68.9,65.8,29.79,ESE,104,4.0,4.0,90,0.00,,,1.10,74,Wunderground v.1.15,2013-05-28 00:40:00,
2013-05-27 19:45:00,68.9,65.8,29.79,ESE,105,4.0,5.0,90,0.00,,,1.10,56,Wunderground v.1.15,2013-05-28 00:45:00,
2013-05-27 19:55:00,68.8,66.1,29.80,ESE,111,6.0,6.0,91,0.00,,,1.10,33,Wunderground v.1.15,2013-05-28 00:55:00,
2013-05-27 20:00:00,68.7,66.0,29.80,ESE,111,5.0,5.0,91,0.00,,,1.10,28,Wunderground v.1.15,2013-05-28 01:00:00,
2013-05-27 20:10:00,68.4,65.7,29.80,ESE,111,5.0,5.0,91,0.00,,,1.10,16,Wunderground v.1.15,2013-05-28 01:10:00,
2013-05-27 20:15:00,68.3,65.6,29.79,ESE,111,5.0,5.0,91,0.00,,,1.10,11,Wunderground v.1.15,2013-05-28 01:15:00,
2013-05-27 20:20:00,68.1,65.4,29.80,ESE,111,5.0,6.0,91,0.00,,,1.10,5,Wunderground v.1.15,2013-05-28 01:20:00,
2013-05-27 20:30:00,67.7,65.3,29.80,ESE,115,4.0,6.0,92,0.00,,,1.10,0,Wunderground v.1.15,2013-05-28 01:30:00,
2013-05-27 20:35:00,67.6,65.2,29.80,ESE,120,4.0,6.0,92,0.00,,,1.10,0,Wunderground v.1.15,2013-05-28 01:35:00,
2013-05-27 20:40:00,67.4,64.7,29.80,SSE,156,5.0,6.0,91,0.00,,,1.10,0,Wunderground v.1.15,2013-05-28 01:40:00,
2013-05-27 20:45:00,67.3,64.6,29.80,SSE,159,5.0,6.0,91,0.00,,,1.10,0,Wunderground v.1.15,2013-05-28 01:45:00,
2013-05-27 20:50:00,67.2,64.5,29.80,SSE,159,4.0,4.0,91,0.00,,,1.10,0,Wunderground v.1.15,2013-05-28 01:50:00,
2013-05-27 20:59:00,66.9,64.2,29.80,SSE,159,2.0,2.0,91,0.00,,,1.10,0,Wunderground v.1.15,2013-05-28 01:59:00,
2013-05-27 21:05:00,66.7,64.0,29.80,SSE,159,2.0,2.0,91,0.00,,,1.10,0,Wunderground v.1.15,2013-05-28 02:05:00,
2013-05-27 21:10:00,66.5,64.1,29.80,SSE,159,3.0,3.0,92,0.00,,,1.10,0,Wunderground v.1.15,2013-05-28 02:10:00,
2013-05-27 21:15:00,66.3,63.9,29.80,SSE,159,3.0,3.0,92,0.00,,,1.10,0,Wunderground v.1.15,2013-05-28 02:15:00,
2013-05-27 21:20:00,66.1,64.0,29.80,SSE,159,3.0,3.0,93,0.00,,,1.10,0,Wunderground v.1.15,2013-05-28 02:20:00,
2013-05-27 21:25:00,66.0,63.9,29.80,SSE,159,3.0,3.0,93,0.00,,,1.10,0,Wunderground v.1.15,2013-05-28 02:25:00,
2013-05-27 21:35:00,65.6,63.8,29.80,SSE,159,3.0,3.0,94,0.00,,,1.10,0,Wunderground v.1.15,2013-05-28 02:35:00,
2013-05-27 21:40:00,65.5,63.7,29.80,SSE,159,2.0,2.0,94,0.00,,,1.10,0,Wunderground v.1.15,2013-05-28 02:40:00,
2013-05-27 21:45:00,65.3,63.5,29.80,SSE,158,0.0,2.0,94,0.00,,,1.10,0,Wunderground v.1.15,2013-05-28 02:45:00,
2013-05-27 21:50:00,65.2,63.4,29.81,SSE,159,0.0,0.0,94,0.00,,,1.10,0,Wunderground v.1.15,2013-05-28 02:50:00,
2013-05-27 21:55:00,65.1,63.3,29.81,SSE,159,0.0,0.0,94,0.00,,,1.10,0,Wunderground v.1.15,2013-05-28 02:55:00,
2013-05-27 22:05:00,64.9,63.4,29.81,SSE,158,1.0,3.0,95,0.00,,,1.10,0,Wunderground v.1.15,2013-05-28 03:05:00,
2013-05-27 22:10:00,64.8,63.3,29.82,SSE,159,2.0,2.0,95,0.00,,,1.10,0,Wunderground v.1.15,2013-05-28 03:10:00,
2013-05-27 22:15:00,64.9,63.4,29.81,SSE,159,3.0,3.0,95,0.00,,,1.10,0,Wunderground v.1.15,2013-05-28 03:15:00,
2013-05-27 22:20:00,64.9,63.4,29.81,SSE,158,3.0,4.0,95,0.00,,,1.10,0,Wunderground v.1.15,2013-05-28 03:20:00,
2013-05-27 22:25:00,64.9,63.4,29.81,SSE,158,4.0,4.0,95,0.00,,,1.10,0,Wunderground v.1.15,2013-05-28 03:25:00,
2013-05-27 22:30:00,64.9,63.7,29.81,SSE,156,4.0,5.0,96,0.00,,,1.10,0,Wunderground v.1.15,2013-05-28 03:30:00,
2013-05-27 22:40:00,65.0,63.8,29.81,SE,142,6.0,7.0,96,0.00,,,1.10,0,Wunderground v.1.15,2013-05-28 03:40:00,
2013-05-27 22:45:00,65.0,63.8,29.80,SE,133,8.0,8.0,96,0.00,,,1.10,0,Wunderground v.1.15,2013-05-28 03:45:00,
2013-05-27 22:50:00,65.0,63.8,29.80,SE,128,9.0,12.0,96,0.00,,,1.10,0,Wunderground v.1.15,2013-05-28 03:50:00,
2013-05-27 22:55:00,65.0,63.8,29.80,SE,132,10.0,12.0,96,0.00,,,1.10,0,Wunderground v.1.15,2013-05-28 03:55:00,
2013-05-27 23:00:00,65.0,63.8,29.80,SE,132,9.0,9.0,96,0.00,,,1.10,0,Wunderground v.1.15,2013-05-28 04:00:00,
2013-05-27 23:05:00,65.0,63.8,29.80,SE,132,7.0,9.0,96,0.00,,,1.10,0,Wunderground v.1.15,2013-05-28 04:05:00,
2013-05-27 23:10:00,65.1,63.9,29.80,SE,131,6.0,6.0,96,0.00,,,1.10,0,Wunderground v.1.15,2013-05-28 04:10:00,
2013-05-27 23:15:00,65.1,63.9,29.80,SE,131,6.0,6.0,96,0.00,,,1.10,0,Wunderground v.1.15,2013-05-28 04:15:00,
2013-05-27 23:20:00,65.1,63.9,29.80,SE,131,5.0,5.0,96,0.00,,,1.10,0,Wunderground v.1.15,2013-05-28 04:20:00,
2013-05-27 23:25:00,65.2,64.0,29.80,SE,132,5.0,5.0,96,0.00,,,1.10,0,Wunderground v.1.15,2013-05-28 04:25:00,
2013-05-27 23:30:00,65.2,63.7,29.80,SE,132,5.0,6.0,95,0.00,,,1.10,0,Wunderground v.1.15,2013-05-28 04:30:00,
2013-05-27 23:35:00,65.2,63.7,29.79,SE,133,6.0,6.0,95,0.00,,,1.10,0,Wunderground v.1.15,2013-05-28 04:35:00,
2013-05-27 23:45:00,65.3,63.8,29.79,SE,137,7.0,7.0,95,0.00,,,1.10,0,Wunderground v.1.15,2013-05-28 04:45:00,
2013-05-27 23:50:00,65.4,63.9,29.79,SE,141,7.0,7.0,95,0.00,,,1.10,0,Wunderground v.1.15,2013-05-28 04:50:00,
2013-05-27 23:55:00,65.5,64.0,29.78,SSE,150,7.0,7.0,95,0.00,,,1.10,0,Wunderground v.1.15,2013-05-28 04:55:00,